sensor_id;sensor_type;location;lat;lon;timestamp;P1;durP1;ratioP1;P2;durP2;ratioP2
14740;SDS011;7462;53.530;9.414;2022-08-18T00:01:08;12.47;;;11.47;;
14740;SDS011;7462;53.530;9.414;2022-08-18T00:03:39;12.47;;;11.27;;
14740;SDS011;7462;53.530;9.414;2022-08-18T00:06:28;12.80;;;11.60;;
14740;SDS011;7462;53.530;9.414;2022-08-18T00:08:58;12.27;;;11.13;;
14740;SDS011;7462;53.530;9.414;2022-08-18T00:11:28;12.27;;;11.07;;
14740;SDS011;7462;53.530;9.414;2022-08-18T00:14:07;12.37;;;11.27;;
14740;SDS011;7462;53.530;9.414;2022-08-18T00:16:49;13.33;;;12.10;;
14740;SDS011;7462;53.530;9.414;2022-08-18T00:19:18;14.03;;;12.87;;
14740;SDS011;7462;53.530;9.414;2022-08-18T00:22:07;15.40;;;14.00;;
14740;SDS011;7462;53.530;9.414;2022-08-18T00:24:42;14.40;;;13.20;;
14740;SDS011;7462;53.530;9.414;2022-08-18T00:27:14;13.63;;;12.33;;
14740;SDS011;7462;53.530;9.414;2022-08-18T00:29:47;14.47;;;13.20;;
14740;SDS011;7462;53.530;9.414;2022-08-18T00:32:16;15.37;;;14.07;;
14740;SDS011;7462;53.530;9.414;2022-08-18T00:34:45;16.20;;;14.90;;
14740;SDS011;7462;53.530;9.414;2022-08-18T00:37:13;16.87;;;15.37;;
14740;SDS011;7462;53.530;9.414;2022-08-18T00:39:43;18.10;;;16.33;;
14740;SDS011;7462;53.530;9.414;2022-08-18T00:42:14;16.53;;;15.07;;
14740;SDS011;7462;53.530;9.414;2022-08-18T00:44:55;19.50;;;17.70;;
14740;SDS011;7462;53.530;9.414;2022-08-18T00:47:25;17.60;;;16.10;;
14740;SDS011;7462;53.530;9.414;2022-08-18T00:50:10;15.83;;;14.30;;
14740;SDS011;7462;53.530;9.414;2022-08-18T00:52:43;17.50;;;15.90;;
14740;SDS011;7462;53.530;9.414;2022-08-18T00:55:20;17.53;;;15.73;;
14740;SDS011;7462;53.530;9.414;2022-08-18T00:57:52;16.63;;;15.20;;
14740;SDS011;7462;53.530;9.414;2022-08-18T01:00:27;17.43;;;15.83;;
14740;SDS011;7462;53.530;9.414;2022-08-18T01:02:55;18.37;;;16.80;;
14740;SDS011;7462;53.530;9.414;2022-08-18T01:05:28;18.57;;;16.97;;
14740;SDS011;7462;53.530;9.414;2022-08-18T01:08:09;18.10;;;16.50;;
14740;SDS011;7462;53.530;9.414;2022-08-18T01:10:43;19.80;;;17.90;;
14740;SDS011;7462;53.530;9.414;2022-08-18T01:13:12;20.23;;;18.37;;
14740;SDS011;7462;53.530;9.414;2022-08-18T01:15:40;18.43;;;16.77;;
14740;SDS011;7462;53.530;9.414;2022-08-18T01:18:09;19.47;;;17.77;;
14740;SDS011;7462;53.530;9.414;2022-08-18T01:20:58;20.33;;;18.43;;
14740;SDS011;7462;53.530;9.414;2022-08-18T01:23:50;17.53;;;15.97;;
14740;SDS011;7462;53.530;9.414;2022-08-18T01:26:20;19.30;;;17.63;;
14740;SDS011;7462;53.530;9.414;2022-08-18T01:28:49;18.33;;;16.63;;
14740;SDS011;7462;53.530;9.414;2022-08-18T01:31:31;19.73;;;17.77;;
14740;SDS011;7462;53.530;9.414;2022-08-18T01:34:03;18.73;;;17.10;;
14740;SDS011;7462;53.530;9.414;2022-08-18T01:36:33;20.60;;;18.57;;
14740;SDS011;7462;53.530;9.414;2022-08-18T01:39:05;21.10;;;19.10;;
14740;SDS011;7462;53.530;9.414;2022-08-18T01:41:34;20.27;;;18.37;;
14740;SDS011;7462;53.530;9.414;2022-08-18T01:44:03;16.53;;;15.13;;
14740;SDS011;7462;53.530;9.414;2022-08-18T01:46:34;16.67;;;15.17;;
14740;SDS011;7462;53.530;9.414;2022-08-18T01:49:02;15.53;;;13.93;;
14740;SDS011;7462;53.530;9.414;2022-08-18T01:51:31;15.80;;;14.33;;
14740;SDS011;7462;53.530;9.414;2022-08-18T01:54:07;16.70;;;15.10;;
14740;SDS011;7462;53.530;9.414;2022-08-18T01:56:38;16.57;;;15.17;;
14740;SDS011;7462;53.530;9.414;2022-08-18T01:59:07;16.20;;;14.77;;
14740;SDS011;7462;53.530;9.414;2022-08-18T02:01:41;15.60;;;14.17;;
14740;SDS011;7462;53.530;9.414;2022-08-18T02:04:18;15.23;;;13.73;;
14740;SDS011;7462;53.530;9.414;2022-08-18T02:07:02;14.87;;;13.50;;
14740;SDS011;7462;53.530;9.414;2022-08-18T02:09:34;16.13;;;14.63;;
14740;SDS011;7462;53.530;9.414;2022-08-18T02:12:03;15.00;;;13.77;;
14740;SDS011;7462;53.530;9.414;2022-08-18T02:14:32;14.93;;;13.73;;
14740;SDS011;7462;53.530;9.414;2022-08-18T02:17:01;15.87;;;14.40;;
14740;SDS011;7462;53.530;9.414;2022-08-18T02:19:33;13.67;;;12.43;;
14740;SDS011;7462;53.530;9.414;2022-08-18T02:22:02;14.00;;;12.80;;
14740;SDS011;7462;53.530;9.414;2022-08-18T02:24:33;14.50;;;13.20;;
14740;SDS011;7462;53.530;9.414;2022-08-18T02:27:02;14.17;;;12.90;;
14740;SDS011;7462;53.530;9.414;2022-08-18T02:29:30;14.00;;;12.70;;
14740;SDS011;7462;53.530;9.414;2022-08-18T02:31:58;14.70;;;13.40;;
14740;SDS011;7462;53.530;9.414;2022-08-18T02:34:27;14.67;;;13.47;;
14740;SDS011;7462;53.530;9.414;2022-08-18T02:36:55;14.80;;;13.57;;
14740;SDS011;7462;53.530;9.414;2022-08-18T02:39:25;15.07;;;13.77;;
14740;SDS011;7462;53.530;9.414;2022-08-18T02:41:54;15.70;;;14.20;;
14740;SDS011;7462;53.530;9.414;2022-08-18T02:44:22;16.37;;;14.90;;
14740;SDS011;7462;53.530;9.414;2022-08-18T02:46:51;15.53;;;14.23;;
14740;SDS011;7462;53.530;9.414;2022-08-18T02:49:20;17.20;;;15.70;;
14740;SDS011;7462;53.530;9.414;2022-08-18T02:51:48;18.53;;;16.93;;
14740;SDS011;7462;53.530;9.414;2022-08-18T02:54:17;17.80;;;16.20;;
14740;SDS011;7462;53.530;9.414;2022-08-18T02:56:45;18.23;;;16.53;;
14740;SDS011;7462;53.530;9.414;2022-08-18T02:59:18;17.00;;;15.50;;
14740;SDS011;7462;53.530;9.414;2022-08-18T03:01:50;18.20;;;16.40;;
14740;SDS011;7462;53.530;9.414;2022-08-18T03:04:20;17.77;;;16.17;;
14740;SDS011;7462;53.530;9.414;2022-08-18T03:06:55;15.97;;;14.40;;
14740;SDS011;7462;53.530;9.414;2022-08-18T03:09:25;15.57;;;14.07;;
14740;SDS011;7462;53.530;9.414;2022-08-18T03:11:54;14.40;;;13.00;;
14740;SDS011;7462;53.530;9.414;2022-08-18T03:14:24;12.03;;;11.03;;
14740;SDS011;7462;53.530;9.414;2022-08-18T03:16:52;13.83;;;12.63;;
14740;SDS011;7462;53.530;9.414;2022-08-18T03:19:21;17.23;;;15.57;;
14740;SDS011;7462;53.530;9.414;2022-08-18T03:21:51;16.70;;;15.10;;
14740;SDS011;7462;53.530;9.414;2022-08-18T03:24:24;16.60;;;14.90;;
14740;SDS011;7462;53.530;9.414;2022-08-18T03:26:54;16.40;;;14.63;;
14740;SDS011;7462;53.530;9.414;2022-08-18T03:29:24;15.10;;;13.70;;
14740;SDS011;7462;53.530;9.414;2022-08-18T03:31:58;15.97;;;14.47;;
14740;SDS011;7462;53.530;9.414;2022-08-18T03:34:27;15.23;;;13.93;;
14740;SDS011;7462;53.530;9.414;2022-08-18T03:36:56;15.67;;;14.27;;
14740;SDS011;7462;53.530;9.414;2022-08-18T03:39:25;15.87;;;14.57;;
14740;SDS011;7462;53.530;9.414;2022-08-18T03:41:54;16.17;;;14.60;;
14740;SDS011;7462;53.530;9.414;2022-08-18T03:44:29;16.90;;;15.10;;
14740;SDS011;7462;53.530;9.414;2022-08-18T03:46:58;16.80;;;15.17;;
14740;SDS011;7462;53.530;9.414;2022-08-18T03:49:29;15.73;;;14.40;;
14740;SDS011;7462;53.530;9.414;2022-08-18T03:51:59;16.07;;;14.47;;
14740;SDS011;7462;53.530;9.414;2022-08-18T03:54:27;15.03;;;13.70;;
14740;SDS011;7462;53.530;9.414;2022-08-18T03:56:57;13.10;;;11.90;;
14740;SDS011;7462;53.530;9.414;2022-08-18T03:59:26;12.80;;;11.70;;
14740;SDS011;7462;53.530;9.414;2022-08-18T04:02:00;10.97;;;10.07;;
14740;SDS011;7462;53.530;9.414;2022-08-18T04:04:30;9.57;;;8.77;;
14740;SDS011;7462;53.530;9.414;2022-08-18T04:07:00;10.57;;;9.53;;
14740;SDS011;7462;53.530;9.414;2022-08-18T04:09:34;11.57;;;10.60;;
14740;SDS011;7462;53.530;9.414;2022-08-18T04:12:04;15.20;;;13.77;;
14740;SDS011;7462;53.530;9.414;2022-08-18T04:14:42;13.47;;;12.27;;
14740;SDS011;7462;53.530;9.414;2022-08-18T04:17:15;13.97;;;12.60;;
14740;SDS011;7462;53.530;9.414;2022-08-18T04:19:45;13.10;;;11.80;;
14740;SDS011;7462;53.530;9.414;2022-08-18T04:22:13;12.40;;;11.30;;
14740;SDS011;7462;53.530;9.414;2022-08-18T04:24:43;11.83;;;10.73;;
14740;SDS011;7462;53.530;9.414;2022-08-18T04:27:11;13.17;;;12.00;;
14740;SDS011;7462;53.530;9.414;2022-08-18T04:29:39;14.80;;;13.30;;
14740;SDS011;7462;53.530;9.414;2022-08-18T04:32:08;16.37;;;14.87;;
14740;SDS011;7462;53.530;9.414;2022-08-18T04:34:37;17.67;;;16.07;;
14740;SDS011;7462;53.530;9.414;2022-08-18T04:37:06;18.13;;;16.53;;
14740;SDS011;7462;53.530;9.414;2022-08-18T04:39:34;19.30;;;17.40;;
14740;SDS011;7462;53.530;9.414;2022-08-18T04:42:03;17.63;;;15.93;;
14740;SDS011;7462;53.530;9.414;2022-08-18T04:44:31;17.00;;;15.23;;
14740;SDS011;7462;53.530;9.414;2022-08-18T04:47:00;17.03;;;15.50;;
14740;SDS011;7462;53.530;9.414;2022-08-18T04:49:28;17.57;;;16.00;;
14740;SDS011;7462;53.530;9.414;2022-08-18T04:51:58;17.47;;;15.90;;
14740;SDS011;7462;53.530;9.414;2022-08-18T04:55:04;15.93;;;14.53;;
14740;SDS011;7462;53.530;9.414;2022-08-18T04:57:33;17.50;;;15.90;;
14740;SDS011;7462;53.530;9.414;2022-08-18T05:00:03;16.90;;;15.40;;
14740;SDS011;7462;53.530;9.414;2022-08-18T05:02:32;15.60;;;13.97;;
14740;SDS011;7462;53.530;9.414;2022-08-18T05:05:00;15.10;;;13.70;;
14740;SDS011;7462;53.530;9.414;2022-08-18T05:07:31;14.37;;;13.00;;
14740;SDS011;7462;53.530;9.414;2022-08-18T05:09:59;15.93;;;14.43;;
14740;SDS011;7462;53.530;9.414;2022-08-18T05:12:28;18.77;;;17.07;;
14740;SDS011;7462;53.530;9.414;2022-08-18T05:14:56;19.27;;;17.53;;
14740;SDS011;7462;53.530;9.414;2022-08-18T05:17:24;20.70;;;18.87;;
14740;SDS011;7462;53.530;9.414;2022-08-18T05:19:56;21.77;;;19.87;;
14740;SDS011;7462;53.530;9.414;2022-08-18T05:22:26;20.50;;;18.53;;
14740;SDS011;7462;53.530;9.414;2022-08-18T05:24:58;21.17;;;19.30;;
14740;SDS011;7462;53.530;9.414;2022-08-18T05:27:30;22.13;;;20.07;;
14740;SDS011;7462;53.530;9.414;2022-08-18T05:29:59;21.17;;;19.37;;
14740;SDS011;7462;53.530;9.414;2022-08-18T05:32:27;22.37;;;20.10;;
14740;SDS011;7462;53.530;9.414;2022-08-18T05:35:16;20.30;;;18.33;;
14740;SDS011;7462;53.530;9.414;2022-08-18T05:37:57;22.53;;;20.33;;
14740;SDS011;7462;53.530;9.414;2022-08-18T05:40:36;22.07;;;20.07;;
14740;SDS011;7462;53.530;9.414;2022-08-18T05:43:04;21.83;;;19.73;;
14740;SDS011;7462;53.530;9.414;2022-08-18T05:45:34;24.00;;;21.70;;
14740;SDS011;7462;53.530;9.414;2022-08-18T05:48:03;21.47;;;19.47;;
14740;SDS011;7462;53.530;9.414;2022-08-18T05:50:31;23.83;;;21.47;;
14740;SDS011;7462;53.530;9.414;2022-08-18T05:53:05;24.70;;;22.27;;
14740;SDS011;7462;53.530;9.414;2022-08-18T05:55:42;26.10;;;22.83;;
14740;SDS011;7462;53.530;9.414;2022-08-18T05:58:32;25.17;;;22.43;;
14740;SDS011;7462;53.530;9.414;2022-08-18T06:01:06;24.13;;;21.67;;
14740;SDS011;7462;53.530;9.414;2022-08-18T06:03:40;26.73;;;24.03;;
14740;SDS011;7462;53.530;9.414;2022-08-18T06:06:15;24.70;;;22.27;;
14740;SDS011;7462;53.530;9.414;2022-08-18T06:08:51;26.53;;;23.87;;
14740;SDS011;7462;53.530;9.414;2022-08-18T06:11:25;27.50;;;24.03;;
14740;SDS011;7462;53.530;9.414;2022-08-18T06:13:53;26.00;;;23.43;;
14740;SDS011;7462;53.530;9.414;2022-08-18T06:16:30;28.43;;;25.20;;
14740;SDS011;7462;53.530;9.414;2022-08-18T06:19:14;26.97;;;24.10;;
14740;SDS011;7462;53.530;9.414;2022-08-18T06:21:56;27.43;;;24.60;;
14740;SDS011;7462;53.530;9.414;2022-08-18T06:24:34;27.93;;;25.00;;
14740;SDS011;7462;53.530;9.414;2022-08-18T06:27:10;30.77;;;27.07;;
14740;SDS011;7462;53.530;9.414;2022-08-18T06:29:48;29.07;;;25.93;;
14740;SDS011;7462;53.530;9.414;2022-08-18T06:32:35;30.27;;;27.17;;
14740;SDS011;7462;53.530;9.414;2022-08-18T06:35:14;33.00;;;27.90;;
14740;SDS011;7462;53.530;9.414;2022-08-18T06:37:53;30.20;;;27.10;;
14740;SDS011;7462;53.530;9.414;2022-08-18T06:40:46;31.90;;;28.17;;
14740;SDS011;7462;53.530;9.414;2022-08-18T06:43:16;32.57;;;28.20;;
14740;SDS011;7462;53.530;9.414;2022-08-18T06:45:45;31.33;;;27.40;;
14740;SDS011;7462;53.530;9.414;2022-08-18T06:48:19;35.33;;;30.77;;
14740;SDS011;7462;53.530;9.414;2022-08-18T06:50:55;32.03;;;28.60;;
14740;SDS011;7462;53.530;9.414;2022-08-18T06:56:27;36.07;;;29.73;;
14740;SDS011;7462;53.530;9.414;2022-08-18T06:59:17;36.47;;;30.87;;
14740;SDS011;7462;53.530;9.414;2022-08-18T07:01:49;33.07;;;29.57;;
14740;SDS011;7462;53.530;9.414;2022-08-18T07:07:30;38.23;;;31.53;;
14740;SDS011;7462;53.530;9.414;2022-08-18T07:10:29;34.97;;;29.73;;
14740;SDS011;7462;53.530;9.414;2022-08-18T07:13:07;33.80;;;29.90;;
14740;SDS011;7462;53.530;9.414;2022-08-18T07:15:43;38.97;;;32.20;;
14740;SDS011;7462;53.530;9.414;2022-08-18T07:18:20;35.30;;;30.93;;
14740;SDS011;7462;53.530;9.414;2022-08-18T07:20:51;33.60;;;29.77;;
14740;SDS011;7462;53.530;9.414;2022-08-18T07:23:27;36.83;;;28.60;;
14740;SDS011;7462;53.530;9.414;2022-08-18T07:25:59;35.23;;;28.30;;
14740;SDS011;7462;53.530;9.414;2022-08-18T07:28:41;32.53;;;28.17;;
14740;SDS011;7462;53.530;9.414;2022-08-18T07:31:17;36.03;;;28.97;;
14740;SDS011;7462;53.530;9.414;2022-08-18T07:33:52;33.43;;;27.87;;
14740;SDS011;7462;53.530;9.414;2022-08-18T07:36:24;31.67;;;27.00;;
14740;SDS011;7462;53.530;9.414;2022-08-18T07:38:58;38.30;;;29.90;;
14740;SDS011;7462;53.530;9.414;2022-08-18T07:41:32;35.30;;;27.70;;
14740;SDS011;7462;53.530;9.414;2022-08-18T07:44:09;31.97;;;27.90;;
14740;SDS011;7462;53.530;9.414;2022-08-18T07:46:47;36.53;;;28.33;;
14740;SDS011;7462;53.530;9.414;2022-08-18T07:49:23;32.10;;;27.57;;
14740;SDS011;7462;53.530;9.414;2022-08-18T07:51:56;35.50;;;29.20;;
14740;SDS011;7462;53.530;9.414;2022-08-18T07:54:43;34.43;;;29.40;;
14740;SDS011;7462;53.530;9.414;2022-08-18T07:57:20;34.90;;;27.23;;
14740;SDS011;7462;53.530;9.414;2022-08-18T08:00:09;30.57;;;27.10;;
14740;SDS011;7462;53.530;9.414;2022-08-18T08:03:07;30.77;;;27.33;;
14740;SDS011;7462;53.530;9.414;2022-08-18T08:05:47;37.57;;;27.63;;
14740;SDS011;7462;53.530;9.414;2022-08-18T08:08:22;34.27;;;26.17;;
14740;SDS011;7462;53.530;9.414;2022-08-18T08:11:02;32.93;;;25.83;;
14740;SDS011;7462;53.530;9.414;2022-08-18T08:13:51;32.33;;;27.73;;
14740;SDS011;7462;53.530;9.414;2022-08-18T08:16:31;29.90;;;25.90;;
14740;SDS011;7462;53.530;9.414;2022-08-18T08:19:07;30.03;;;26.93;;
14740;SDS011;7462;53.530;9.414;2022-08-18T08:22:11;31.93;;;26.17;;
14740;SDS011;7462;53.530;9.414;2022-08-18T08:24:50;31.53;;;26.33;;
14740;SDS011;7462;53.530;9.414;2022-08-18T08:27:27;30.73;;;26.27;;
14740;SDS011;7462;53.530;9.414;2022-08-18T08:30:07;31.17;;;27.73;;
14740;SDS011;7462;53.530;9.414;2022-08-18T08:32:40;29.83;;;26.63;;
14740;SDS011;7462;53.530;9.414;2022-08-18T08:35:20;32.90;;;26.40;;
14740;SDS011;7462;53.530;9.414;2022-08-18T08:38:15;31.73;;;26.60;;
14740;SDS011;7462;53.530;9.414;2022-08-18T08:41:09;29.83;;;25.70;;
14740;SDS011;7462;53.530;9.414;2022-08-18T08:43:41;28.30;;;25.00;;
14740;SDS011;7462;53.530;9.414;2022-08-18T08:46:16;27.37;;;24.63;;
14740;SDS011;7462;53.530;9.414;2022-08-18T08:48:48;27.27;;;24.40;;
14740;SDS011;7462;53.530;9.414;2022-08-18T08:51:28;29.33;;;26.23;;
14740;SDS011;7462;53.530;9.414;2022-08-18T08:54:03;27.97;;;25.03;;
14740;SDS011;7462;53.530;9.414;2022-08-18T08:56:38;29.57;;;26.37;;
14740;SDS011;7462;53.530;9.414;2022-08-18T08:59:10;29.80;;;25.53;;
14740;SDS011;7462;53.530;9.414;2022-08-18T09:01:41;27.90;;;24.40;;
14740;SDS011;7462;53.530;9.414;2022-08-18T09:04:17;27.20;;;24.30;;
14740;SDS011;7462;53.530;9.414;2022-08-18T09:06:59;29.07;;;25.43;;
14740;SDS011;7462;53.530;9.414;2022-08-18T09:09:43;27.13;;;24.23;;
14740;SDS011;7462;53.530;9.414;2022-08-18T09:12:33;29.23;;;26.03;;
14740;SDS011;7462;53.530;9.414;2022-08-18T09:15:12;27.43;;;24.47;;
14740;SDS011;7462;53.530;9.414;2022-08-18T09:18:02;30.87;;;27.43;;
14740;SDS011;7462;53.530;9.414;2022-08-18T09:20:49;28.70;;;24.23;;
14740;SDS011;7462;53.530;9.414;2022-08-18T09:23:25;27.87;;;24.93;;
14740;SDS011;7462;53.530;9.414;2022-08-18T09:25:57;26.63;;;23.83;;
14740;SDS011;7462;53.530;9.414;2022-08-18T09:28:51;25.77;;;23.20;;
14740;SDS011;7462;53.530;9.414;2022-08-18T09:31:23;27.20;;;24.37;;
14740;SDS011;7462;53.530;9.414;2022-08-18T09:34:09;25.23;;;22.63;;
14740;SDS011;7462;53.530;9.414;2022-08-18T09:36:54;24.23;;;21.67;;
14740;SDS011;7462;53.530;9.414;2022-08-18T09:39:32;22.83;;;20.60;;
14740;SDS011;7462;53.530;9.414;2022-08-18T09:42:31;24.00;;;21.73;;
14740;SDS011;7462;53.530;9.414;2022-08-18T09:48:23;25.27;;;22.80;;
14740;SDS011;7462;53.530;9.414;2022-08-18T09:56:56;17.87;;;16.13;;
14740;SDS011;7462;53.530;9.414;2022-08-18T10:05:37;20.43;;;18.40;;
14740;SDS011;7462;53.530;9.414;2022-08-18T10:11:17;16.67;;;15.17;;
14740;SDS011;7462;53.530;9.414;2022-08-18T10:14:02;16.63;;;14.90;;
14740;SDS011;7462;53.530;9.414;2022-08-18T10:16:45;16.33;;;14.73;;
14740;SDS011;7462;53.530;9.414;2022-08-18T10:19:42;15.37;;;13.80;;
14740;SDS011;7462;53.530;9.414;2022-08-18T10:22:34;14.27;;;12.57;;
14740;SDS011;7462;53.530;9.414;2022-08-18T10:25:05;13.70;;;12.33;;
14740;SDS011;7462;53.530;9.414;2022-08-18T10:27:50;14.77;;;13.30;;
14740;SDS011;7462;53.530;9.414;2022-08-18T10:33:57;13.00;;;11.70;;
14740;SDS011;7462;53.530;9.414;2022-08-18T10:36:44;14.60;;;12.53;;
14740;SDS011;7462;53.530;9.414;2022-08-18T10:39:18;12.90;;;11.70;;
14740;SDS011;7462;53.530;9.414;2022-08-18T10:42:01;12.37;;;11.17;;
14740;SDS011;7462;53.530;9.414;2022-08-18T10:44:39;15.67;;;14.10;;
14740;SDS011;7462;53.530;9.414;2022-08-18T10:47:18;14.57;;;13.23;;
14740;SDS011;7462;53.530;9.414;2022-08-18T10:49:51;11.30;;;10.10;;
14740;SDS011;7462;53.530;9.414;2022-08-18T10:55:46;16.03;;;13.50;;
14740;SDS011;7462;53.530;9.414;2022-08-18T11:01:27;15.57;;;14.00;;
14740;SDS011;7462;53.530;9.414;2022-08-18T11:04:11;11.93;;;10.73;;
14740;SDS011;7462;53.530;9.414;2022-08-18T11:07:07;11.13;;;10.13;;
14740;SDS011;7462;53.530;9.414;2022-08-18T11:09:38;13.63;;;9.87;;
14740;SDS011;7462;53.530;9.414;2022-08-18T11:12:42;11.83;;;9.90;;
14740;SDS011;7462;53.530;9.414;2022-08-18T11:15:25;10.87;;;9.60;;
14740;SDS011;7462;53.530;9.414;2022-08-18T11:18:10;10.33;;;9.33;;
14740;SDS011;7462;53.530;9.414;2022-08-18T11:24:13;10.37;;;9.37;;
14740;SDS011;7462;53.530;9.414;2022-08-18T11:26:44;11.50;;;10.40;;
14740;SDS011;7462;53.530;9.414;2022-08-18T11:29:23;11.93;;;9.70;;
14740;SDS011;7462;53.530;9.414;2022-08-18T11:32:00;10.13;;;9.27;;
14740;SDS011;7462;53.530;9.414;2022-08-18T11:34:37;10.63;;;8.97;;
14740;SDS011;7462;53.530;9.414;2022-08-18T11:37:20;11.80;;;10.03;;
14740;SDS011;7462;53.530;9.414;2022-08-18T11:39:55;11.93;;;10.73;;
14740;SDS011;7462;53.530;9.414;2022-08-18T11:42:26;11.67;;;10.47;;
14740;SDS011;7462;53.530;9.414;2022-08-18T11:45:02;12.07;;;10.10;;
14740;SDS011;7462;53.530;9.414;2022-08-18T11:47:35;11.27;;;10.07;;
14740;SDS011;7462;53.530;9.414;2022-08-18T11:50:06;9.37;;;8.57;;
14740;SDS011;7462;53.530;9.414;2022-08-18T11:52:47;10.13;;;9.13;;
14740;SDS011;7462;53.530;9.414;2022-08-18T11:55:28;12.57;;;11.40;;
14740;SDS011;7462;53.530;9.414;2022-08-18T11:57:59;14.37;;;12.97;;
14740;SDS011;7462;53.530;9.414;2022-08-18T12:00:42;13.43;;;12.00;;
14740;SDS011;7462;53.530;9.414;2022-08-18T12:03:28;12.13;;;10.40;;
14740;SDS011;7462;53.530;9.414;2022-08-18T12:06:09;13.17;;;11.73;;
14740;SDS011;7462;53.530;9.414;2022-08-18T12:08:50;11.67;;;10.63;;
14740;SDS011;7462;53.530;9.414;2022-08-18T12:11:26;12.97;;;11.60;;
14740;SDS011;7462;53.530;9.414;2022-08-18T12:14:00;13.30;;;11.90;;
14740;SDS011;7462;53.530;9.414;2022-08-18T12:16:51;11.67;;;10.37;;
14740;SDS011;7462;53.530;9.414;2022-08-18T12:19:20;11.87;;;10.80;;
14740;SDS011;7462;53.530;9.414;2022-08-18T12:21:50;12.43;;;11.27;;
14740;SDS011;7462;53.530;9.414;2022-08-18T12:24:22;9.70;;;8.73;;
14740;SDS011;7462;53.530;9.414;2022-08-18T12:27:03;11.23;;;10.23;;
14740;SDS011;7462;53.530;9.414;2022-08-18T12:29:47;11.43;;;10.33;;
14740;SDS011;7462;53.530;9.414;2022-08-18T12:32:16;10.33;;;9.43;;
14740;SDS011;7462;53.530;9.414;2022-08-18T12:35:05;10.73;;;9.73;;
14740;SDS011;7462;53.530;9.414;2022-08-18T12:37:36;12.33;;;10.53;;
14740;SDS011;7462;53.530;9.414;2022-08-18T12:40:26;12.43;;;11.33;;
14740;SDS011;7462;53.530;9.414;2022-08-18T12:42:56;12.93;;;11.73;;
14740;SDS011;7462;53.530;9.414;2022-08-18T12:45:24;13.63;;;12.23;;
14740;SDS011;7462;53.530;9.414;2022-08-18T12:47:56;14.27;;;12.70;;
14740;SDS011;7462;53.530;9.414;2022-08-18T12:50:47;16.03;;;14.60;;
14740;SDS011;7462;53.530;9.414;2022-08-18T12:53:25;12.20;;;11.10;;
14740;SDS011;7462;53.530;9.414;2022-08-18T12:56:16;12.87;;;11.80;;
14740;SDS011;7462;53.530;9.414;2022-08-18T12:58:49;12.77;;;11.67;;
14740;SDS011;7462;53.530;9.414;2022-08-18T13:01:18;14.07;;;12.97;;
14740;SDS011;7462;53.530;9.414;2022-08-18T13:04:07;13.13;;;11.83;;
14740;SDS011;7462;53.530;9.414;2022-08-18T13:06:41;15.33;;;13.83;;
14740;SDS011;7462;53.530;9.414;2022-08-18T13:09:27;13.97;;;12.73;;
14740;SDS011;7462;53.530;9.414;2022-08-18T13:12:17;14.83;;;13.43;;
14740;SDS011;7462;53.530;9.414;2022-08-18T13:14:47;12.10;;;11.00;;
14740;SDS011;7462;53.530;9.414;2022-08-18T13:17:17;13.87;;;12.57;;
14740;SDS011;7462;53.530;9.414;2022-08-18T13:19:59;13.43;;;12.23;;
14740;SDS011;7462;53.530;9.414;2022-08-18T13:22:30;13.60;;;12.27;;
14740;SDS011;7462;53.530;9.414;2022-08-18T13:24:59;12.60;;;11.50;;
14740;SDS011;7462;53.530;9.414;2022-08-18T13:27:30;15.00;;;13.40;;
14740;SDS011;7462;53.530;9.414;2022-08-18T13:30:06;12.97;;;11.67;;
14740;SDS011;7462;53.530;9.414;2022-08-18T13:32:56;12.13;;;11.07;;
14740;SDS011;7462;53.530;9.414;2022-08-18T13:35:28;11.37;;;10.47;;
14740;SDS011;7462;53.530;9.414;2022-08-18T13:38:09;11.80;;;10.70;;
14740;SDS011;7462;53.530;9.414;2022-08-18T13:40:47;10.83;;;9.93;;
14740;SDS011;7462;53.530;9.414;2022-08-18T13:43:18;9.80;;;9.00;;
14740;SDS011;7462;53.530;9.414;2022-08-18T13:45:58;10.87;;;9.50;;
14740;SDS011;7462;53.530;9.414;2022-08-18T13:48:27;9.87;;;8.40;;
14740;SDS011;7462;53.530;9.414;2022-08-18T13:50:55;8.90;;;8.05;;
14740;SDS011;7462;53.530;9.414;2022-08-18T13:53:27;9.17;;;8.00;;
14740;SDS011;7462;53.530;9.414;2022-08-18T13:55:57;11.00;;;7.73;;
14740;SDS011;7462;53.530;9.414;2022-08-18T13:58:25;16.83;;;8.97;;
14740;SDS011;7462;53.530;9.414;2022-08-18T14:00:56;10.80;;;8.00;;
14740;SDS011;7462;53.530;9.414;2022-08-18T14:03:46;10.53;;;7.03;;
14740;SDS011;7462;53.530;9.414;2022-08-18T14:06:16;10.43;;;6.60;;
14740;SDS011;7462;53.530;9.414;2022-08-18T14:08:49;23.90;;;11.70;;
14740;SDS011;7462;53.530;9.414;2022-08-18T14:11:19;9.20;;;8.23;;
14740;SDS011;7462;53.530;9.414;2022-08-18T14:13:53;669.33;;;43.00;;
14740;SDS011;7462;53.530;9.414;2022-08-18T14:16:22;133.77;;;25.23;;
14740;SDS011;7462;53.530;9.414;2022-08-18T14:18:54;53.22;;;14.05;;
14740;SDS011;7462;53.530;9.414;2022-08-18T14:21:48;17.73;;;8.67;;
14740;SDS011;7462;53.530;9.414;2022-08-18T14:24:37;15.53;;;7.60;;
14740;SDS011;7462;53.530;9.414;2022-08-18T14:27:26;10.87;;;6.97;;
14740;SDS011;7462;53.530;9.414;2022-08-18T14:30:00;10.93;;;6.27;;
14740;SDS011;7462;53.530;9.414;2022-08-18T14:32:30;9.03;;;6.00;;
14740;SDS011;7462;53.530;9.414;2022-08-18T14:35:04;7.40;;;6.37;;
14740;SDS011;7462;53.530;9.414;2022-08-18T14:37:53;6.80;;;5.57;;
14740;SDS011;7462;53.530;9.414;2022-08-18T14:40:22;8.20;;;6.23;;
14740;SDS011;7462;53.530;9.414;2022-08-18T14:42:50;7.10;;;5.90;;
14740;SDS011;7462;53.530;9.414;2022-08-18T14:45:21;10.37;;;6.40;;
14740;SDS011;7462;53.530;9.414;2022-08-18T14:47:59;7.63;;;5.93;;
14740;SDS011;7462;53.530;9.414;2022-08-18T14:50:34;7.20;;;6.07;;
14740;SDS011;7462;53.530;9.414;2022-08-18T14:53:03;9.67;;;5.90;;
14740;SDS011;7462;53.530;9.414;2022-08-18T14:55:31;8.93;;;6.47;;
14740;SDS011;7462;53.530;9.414;2022-08-18T14:58:01;7.33;;;6.37;;
14740;SDS011;7462;53.530;9.414;2022-08-18T15:00:33;11.00;;;7.13;;
14740;SDS011;7462;53.530;9.414;2022-08-18T15:03:19;9.37;;;6.70;;
14740;SDS011;7462;53.530;9.414;2022-08-18T15:05:58;10.30;;;6.47;;
14740;SDS011;7462;53.530;9.414;2022-08-18T15:08:30;8.30;;;6.50;;
14740;SDS011;7462;53.530;9.414;2022-08-18T15:11:00;9.07;;;6.50;;
14740;SDS011;7462;53.530;9.414;2022-08-18T15:13:37;7.17;;;6.10;;
14740;SDS011;7462;53.530;9.414;2022-08-18T15:16:07;8.83;;;6.20;;
14740;SDS011;7462;53.530;9.414;2022-08-18T15:18:38;9.83;;;6.80;;
14740;SDS011;7462;53.530;9.414;2022-08-18T15:21:08;9.73;;;6.53;;
14740;SDS011;7462;53.530;9.414;2022-08-18T15:24:04;10.27;;;7.00;;
14740;SDS011;7462;53.530;9.414;2022-08-18T15:26:51;9.60;;;6.80;;
14740;SDS011;7462;53.530;9.414;2022-08-18T15:29:23;9.33;;;6.43;;
14740;SDS011;7462;53.530;9.414;2022-08-18T15:31:54;7.37;;;6.53;;
14740;SDS011;7462;53.530;9.414;2022-08-18T15:34:31;9.33;;;6.73;;
14740;SDS011;7462;53.530;9.414;2022-08-18T15:37:14;9.47;;;6.73;;
14740;SDS011;7462;53.530;9.414;2022-08-18T15:39:46;7.47;;;6.77;;
14740;SDS011;7462;53.530;9.414;2022-08-18T15:42:21;6.93;;;6.23;;
14740;SDS011;7462;53.530;9.414;2022-08-18T15:44:50;8.77;;;6.70;;
14740;SDS011;7462;53.530;9.414;2022-08-18T15:47:19;8.53;;;6.53;;
14740;SDS011;7462;53.530;9.414;2022-08-18T15:49:50;9.93;;;7.07;;
14740;SDS011;7462;53.530;9.414;2022-08-18T15:52:21;8.33;;;7.27;;
14740;SDS011;7462;53.530;9.414;2022-08-18T15:54:51;8.77;;;7.13;;
14740;SDS011;7462;53.530;9.414;2022-08-18T15:57:27;8.97;;;7.10;;
14740;SDS011;7462;53.530;9.414;2022-08-18T16:00:05;8.47;;;7.57;;
14740;SDS011;7462;53.530;9.414;2022-08-18T16:02:37;10.17;;;7.40;;
14740;SDS011;7462;53.530;9.414;2022-08-18T16:05:13;11.70;;;7.40;;